sensor_id;sensor_type;location;lat;lon;timestamp;pressure;altitude;pressure_sealevel;temperature;humidity
18749;BME280;9503;53.560;10.246;2023-11-25T00:02:01;99803.22;;;6.14;72.27
18749;BME280;9503;53.560;10.246;2023-11-25T00:04:28;99802.03;;;5.74;72.17
18749;BME280;9503;53.560;10.246;2023-11-25T00:06:54;99802.34;;;5.80;72.92
18749;BME280;9503;53.560;10.246;2023-11-25T00:09:21;99804.59;;;5.91;72.20
18749;BME280;9503;53.560;10.246;2023-11-25T00:11:49;99805.84;;;5.99;71.14
18749;BME280;9503;53.560;10.246;2023-11-25T00:14:16;99806.88;;;6.19;71.19
18749;BME280;9503;53.560;10.246;2023-11-25T00:16:42;99801.84;;;5.55;72.04
18749;BME280;9503;53.560;10.246;2023-11-25T00:19:10;99812.59;;;5.82;72.07
18749;BME280;9503;53.560;10.246;2023-11-25T00:21:37;99815.78;;;6.11;71.90
18749;BME280;9503;53.560;10.246;2023-11-25T00:24:04;99811.63;;;6.29;70.89
18749;BME280;9503;53.560;10.246;2023-11-25T00:26:31;99818.47;;;6.14;71.45
18749;BME280;9503;53.560;10.246;2023-11-25T00:28:58;99814.91;;;6.10;71.06
18749;BME280;9503;53.560;10.246;2023-11-25T00:31:24;99820.63;;;6.06;72.07
18749;BME280;9503;53.560;10.246;2023-11-25T00:33:51;99807.97;;;5.59;72.34
18749;BME280;9503;53.560;10.246;2023-11-25T00:36:19;99811.56;;;5.95;72.13
18749;BME280;9503;53.560;10.246;2023-11-25T00:38:46;99809.13;;;5.65;72.07
18749;BME280;9503;53.560;10.246;2023-11-25T00:41:13;99806.31;;;5.75;71.78
18749;BME280;9503;53.560;10.246;2023-11-25T00:43:39;99803.38;;;6.00;71.66
18749;BME280;9503;53.560;10.246;2023-11-25T00:46:06;99801.38;;;5.78;70.99
18749;BME280;9503;53.560;10.246;2023-11-25T00:48:33;99802.13;;;5.92;71.95
18749;BME280;9503;53.560;10.246;2023-11-25T00:51:00;99812.34;;;5.77;72.13
18749;BME280;9503;53.560;10.246;2023-11-25T00:53:28;99815.09;;;5.49;73.00
18749;BME280;9503;53.560;10.246;2023-11-25T00:55:55;99820.69;;;5.59;72.74
18749;BME280;9503;53.560;10.246;2023-11-25T00:58:22;99822.97;;;5.54;72.10
18749;BME280;9503;53.560;10.246;2023-11-25T01:00:48;99819.09;;;5.61;72.62
18749;BME280;9503;53.560;10.246;2023-11-25T01:03:15;99819.75;;;5.73;72.44
18749;BME280;9503;53.560;10.246;2023-11-25T01:05:42;99823.31;;;5.60;72.13
18749;BME280;9503;53.560;10.246;2023-11-25T01:08:09;99828.13;;;5.72;71.88
18749;BME280;9503;53.560;10.246;2023-11-25T01:10:37;99835.56;;;5.83;72.11
18749;BME280;9503;53.560;10.246;2023-11-25T01:13:05;99831.97;;;5.80;71.48
18749;BME280;9503;53.560;10.246;2023-11-25T01:15:32;99829.97;;;5.27;73.24
18749;BME280;9503;53.560;10.246;2023-11-25T01:17:58;99831.88;;;5.62;72.51
18749;BME280;9503;53.560;10.246;2023-11-25T01:20:25;99829.06;;;5.41;72.59
18749;BME280;9503;53.560;10.246;2023-11-25T01:22:52;99821.84;;;5.49;73.18
18749;BME280;9503;53.560;10.246;2023-11-25T01:25:19;99824.47;;;5.50;72.84
18749;BME280;9503;53.560;10.246;2023-11-25T01:27:47;99826.38;;;5.54;72.60
18749;BME280;9503;53.560;10.246;2023-11-25T01:30:14;99824.38;;;5.49;73.60
18749;BME280;9503;53.560;10.246;2023-11-25T01:32:41;99826.38;;;5.54;73.38
18749;BME280;9503;53.560;10.246;2023-11-25T01:35:07;99825.13;;;5.79;72.03
18749;BME280;9503;53.560;10.246;2023-11-25T01:37:34;99826.78;;;5.78;71.59
18749;BME280;9503;53.560;10.246;2023-11-25T01:40:01;99820.22;;;5.82;71.03
18749;BME280;9503;53.560;10.246;2023-11-25T01:42:30;99823.72;;;5.84;70.88
18749;BME280;9503;53.560;10.246;2023-11-25T01:44:58;99830.13;;;5.77;70.84
18749;BME280;9503;53.560;10.246;2023-11-25T01:47:25;99822.09;;;5.53;71.61
18749;BME280;9503;53.560;10.246;2023-11-25T01:49:51;99813.69;;;5.71;70.80
18749;BME280;9503;53.560;10.246;2023-11-25T01:52:18;99823.78;;;5.53;70.91
18749;BME280;9503;53.560;10.246;2023-11-25T01:54:45;99814.22;;;5.49;71.54
18749;BME280;9503;53.560;10.246;2023-11-25T01:57:12;99812.53;;;5.49;71.61
18749;BME280;9503;53.560;10.246;2023-11-25T01:59:41;99822.09;;;5.53;71.59
18749;BME280;9503;53.560;10.246;2023-11-25T02:02:10;99819.16;;;5.46;71.41
18749;BME280;9503;53.560;10.246;2023-11-25T02:04:38;99816.34;;;5.41;71.78
18749;BME280;9503;53.560;10.246;2023-11-25T02:07:05;99804.69;;;5.14;73.07
18749;BME280;9503;53.560;10.246;2023-11-25T02:09:31;99816.00;;;5.19;73.55
18749;BME280;9503;53.560;10.246;2023-11-25T02:12:00;99814.59;;;5.40;73.15
18749;BME280;9503;53.560;10.246;2023-11-25T02:14:27;99815.25;;;5.36;72.95
18749;BME280;9503;53.560;10.246;2023-11-25T02:16:54;99814.00;;;5.44;72.66
18749;BME280;9503;53.560;10.246;2023-11-25T02:19:23;99806.78;;;5.52;72.45
18749;BME280;9503;53.560;10.246;2023-11-25T02:21:51;99818.47;;;5.34;73.06
18749;BME280;9503;53.560;10.246;2023-11-25T02:24:19;99813.94;;;5.59;73.34
18749;BME280;9503;53.560;10.246;2023-11-25T02:26:47;99810.19;;;5.69;72.86
18749;BME280;9503;53.560;10.246;2023-11-25T02:29:14;99803.03;;;5.78;72.33
18749;BME280;9503;53.560;10.246;2023-11-25T02:31:40;99804.78;;;5.63;72.43
18749;BME280;9503;53.560;10.246;2023-11-25T02:34:07;99806.13;;;5.72;72.67
18749;BME280;9503;53.560;10.246;2023-11-25T02:36:34;99800.34;;;5.75;72.05
18749;BME280;9503;53.560;10.246;2023-11-25T02:39:01;99804.91;;;5.49;73.19
18749;BME280;9503;53.560;10.246;2023-11-25T02:41:29;99799.56;;;5.60;72.55
18749;BME280;9503;53.560;10.246;2023-11-25T02:43:56;99798.19;;;5.66;72.21
18749;BME280;9503;53.560;10.246;2023-11-25T02:46:24;99794.41;;;5.43;73.50
18749;BME280;9503;53.560;10.246;2023-11-25T02:48:50;99786.97;;;5.30;74.10
18749;BME280;9503;53.560;10.246;2023-11-25T02:51:17;99795.00;;;5.54;73.60
18749;BME280;9503;53.560;10.246;2023-11-25T02:53:44;99788.19;;;5.69;73.00
18749;BME280;9503;53.560;10.246;2023-11-25T02:56:11;99783.16;;;5.54;73.30
18749;BME280;9503;53.560;10.246;2023-11-25T02:58:39;99782.38;;;5.39;73.97
18749;BME280;9503;53.560;10.246;2023-11-25T03:01:06;99781.25;;;5.50;73.44
18749;BME280;9503;53.560;10.246;2023-11-25T03:03:37;99770.38;;;5.53;73.46
18749;BME280;9503;53.560;10.246;2023-11-25T03:06:07;99772.19;;;5.55;72.94
18749;BME280;9503;53.560;10.246;2023-11-25T03:08:35;99767.19;;;5.57;72.98
18749;BME280;9503;53.560;10.246;2023-11-25T03:11:01;99766.16;;;5.70;72.66
18749;BME280;9503;53.560;10.246;2023-11-25T03:13:30;99768.97;;;5.74;72.01
18749;BME280;9503;53.560;10.246;2023-11-25T03:15:58;99777.53;;;5.76;72.43
18749;BME280;9503;53.560;10.246;2023-11-25T03:18:24;99774.38;;;5.80;72.06
18749;BME280;9503;53.560;10.246;2023-11-25T03:20:51;99773.72;;;6.17;71.83
18749;BME280;9503;53.560;10.246;2023-11-25T03:23:18;99766.59;;;6.28;71.07
18749;BME280;9503;53.560;10.246;2023-11-25T03:25:45;99775.78;;;6.42;70.50
18749;BME280;9503;53.560;10.246;2023-11-25T03:28:12;99770.63;;;6.41;70.30
18749;BME280;9503;53.560;10.246;2023-11-25T03:30:39;99771.06;;;6.16;71.23
18749;BME280;9503;53.560;10.246;2023-11-25T03:33:08;99768.38;;;5.80;71.19
18749;BME280;9503;53.560;10.246;2023-11-25T03:35:34;99762.75;;;5.37;73.42
18749;BME280;9503;53.560;10.246;2023-11-25T03:38:01;99748.97;;;5.17;75.59
18749;BME280;9503;53.560;10.246;2023-11-25T03:40:28;99747.09;;;4.98;76.75
18749;BME280;9503;53.560;10.246;2023-11-25T03:42:54;99744.66;;;4.99;76.97
18749;BME280;9503;53.560;10.246;2023-11-25T03:45:21;99742.91;;;4.98;77.04
18749;BME280;9503;53.560;10.246;2023-11-25T03:47:47;99743.91;;;5.33;76.65
18749;BME280;9503;53.560;10.246;2023-11-25T03:50:17;99739.16;;;5.23;76.64
18749;BME280;9503;53.560;10.246;2023-11-25T03:52:44;99738.34;;;5.40;76.76
18749;BME280;9503;53.560;10.246;2023-11-25T03:55:11;99732.16;;;5.19;76.77
18749;BME280;9503;53.560;10.246;2023-11-25T03:57:39;99737.00;;;5.31;74.96
18749;BME280;9503;53.560;10.246;2023-11-25T04:00:07;99737.16;;;5.50;75.76
18749;BME280;9503;53.560;10.246;2023-11-25T04:02:41;99732.00;;;5.32;75.43
18749;BME280;9503;53.560;10.246;2023-11-25T04:05:07;99736.69;;;5.24;74.71
18749;BME280;9503;53.560;10.246;2023-11-25T04:07:35;99730.72;;;5.57;74.53
18749;BME280;9503;53.560;10.246;2023-11-25T04:10:02;99730.66;;;5.88;72.70
18749;BME280;9503;53.560;10.246;2023-11-25T04:12:38;99728.75;;;5.67;73.47
18749;BME280;9503;53.560;10.246;2023-11-25T04:15:05;99761.38;;;6.08;72.79
18749;BME280;9503;53.560;10.246;2023-11-25T04:17:32;99782.25;;;6.35;70.89
18749;BME280;9503;53.560;10.246;2023-11-25T04:19:59;99783.97;;;5.53;73.63
18749;BME280;9503;53.560;10.246;2023-11-25T04:22:26;99770.78;;;5.77;75.03
18749;BME280;9503;53.560;10.246;2023-11-25T04:24:54;99757.34;;;5.31;76.65
18749;BME280;9503;53.560;10.246;2023-11-25T04:27:20;99742.41;;;5.37;77.76
18749;BME280;9503;53.560;10.246;2023-11-25T04:29:51;99739.63;;;5.32;79.51
18749;BME280;9503;53.560;10.246;2023-11-25T04:32:18;99738.03;;;5.34;79.66
18749;BME280;9503;53.560;10.246;2023-11-25T04:34:45;99721.75;;;5.63;79.50
18749;BME280;9503;53.560;10.246;2023-11-25T04:37:12;99720.25;;;5.50;80.21
18749;BME280;9503;53.560;10.246;2023-11-25T04:39:39;99708.91;;;5.60;80.64
18749;BME280;9503;53.560;10.246;2023-11-25T04:42:07;99703.19;;;5.32;81.33
18749;BME280;9503;53.560;10.246;2023-11-25T04:44:34;99697.69;;;5.40;81.08
18749;BME280;9503;53.560;10.246;2023-11-25T04:47:00;99692.06;;;6.13;79.49
18749;BME280;9503;53.560;10.246;2023-11-25T04:49:27;99682.97;;;5.67;80.71
18749;BME280;9503;53.560;10.246;2023-11-25T04:51:54;99672.84;;;6.37;79.02
18749;BME280;9503;53.560;10.246;2023-11-25T04:54:20;99681.28;;;6.36;77.55
18749;BME280;9503;53.560;10.246;2023-11-25T04:56:47;99673.59;;;6.89;76.44
18749;BME280;9503;53.560;10.246;2023-11-25T04:59:15;99667.91;;;6.95;75.32
18749;BME280;9503;53.560;10.246;2023-11-25T05:01:42;99653.84;;;6.84;75.49
18749;BME280;9503;53.560;10.246;2023-11-25T05:04:08;99656.75;;;6.74;75.93
18749;BME280;9503;53.560;10.246;2023-11-25T05:06:36;99666.38;;;6.44;75.62
18749;BME280;9503;53.560;10.246;2023-11-25T05:09:03;99659.22;;;6.01;77.57
18749;BME280;9503;53.560;10.246;2023-11-25T05:11:30;99646.59;;;6.56;77.88
18749;BME280;9503;53.560;10.246;2023-11-25T05:13:57;99648.97;;;7.08;75.55
18749;BME280;9503;53.560;10.246;2023-11-25T05:16:24;99645.50;;;6.51;77.33
18749;BME280;9503;53.560;10.246;2023-11-25T05:18:51;99643.38;;;6.78;76.28
18749;BME280;9503;53.560;10.246;2023-11-25T05:21:17;99653.16;;;6.88;76.06
18749;BME280;9503;53.560;10.246;2023-11-25T05:23:44;99664.00;;;6.11;78.86
18749;BME280;9503;53.560;10.246;2023-11-25T05:26:11;99672.94;;;6.56;78.35
18749;BME280;9503;53.560;10.246;2023-11-25T05:28:38;99689.59;;;6.50;77.89
18749;BME280;9503;53.560;10.246;2023-11-25T05:31:04;99692.81;;;5.77;80.69
18749;BME280;9503;53.560;10.246;2023-11-25T05:33:32;99698.63;;;5.91;82.00
18749;BME280;9503;53.560;10.246;2023-11-25T05:35:59;99695.06;;;6.40;81.02
18749;BME280;9503;53.560;10.246;2023-11-25T05:38:27;99691.59;;;6.03;80.74
18749;BME280;9503;53.560;10.246;2023-11-25T05:40:53;99681.19;;;5.99;82.69
18749;BME280;9503;53.560;10.246;2023-11-25T05:43:22;99680.88;;;6.27;82.44
18749;BME280;9503;53.560;10.246;2023-11-25T05:45:49;99677.72;;;6.50;81.24
18749;BME280;9503;53.560;10.246;2023-11-25T05:48:16;99678.69;;;6.89;80.81
18749;BME280;9503;53.560;10.246;2023-11-25T05:50:45;99682.31;;;7.12;79.98
18749;BME280;9503;53.560;10.246;2023-11-25T05:53:11;99678.78;;;7.10;79.31
18749;BME280;9503;53.560;10.246;2023-11-25T05:55:38;99679.53;;;7.66;78.73
18749;BME280;9503;53.560;10.246;2023-11-25T05:58:04;99665.16;;;7.68;77.85
18749;BME280;9503;53.560;10.246;2023-11-25T06:00:31;99665.38;;;7.53;78.38
18749;BME280;9503;53.560;10.246;2023-11-25T06:02:58;99661.78;;;7.88;76.57
18749;BME280;9503;53.560;10.246;2023-11-25T06:05:25;99662.91;;;7.95;75.51
18749;BME280;9503;53.560;10.246;2023-11-25T06:07:54;99659.06;;;7.85;76.62
18749;BME280;9503;53.560;10.246;2023-11-25T06:10:20;99668.94;;;7.18;77.83
18749;BME280;9503;53.560;10.246;2023-11-25T06:12:48;99669.97;;;7.22;79.17
18749;BME280;9503;53.560;10.246;2023-11-25T06:15:15;99670.00;;;7.04;80.81
18749;BME280;9503;53.560;10.246;2023-11-25T06:17:41;99668.56;;;6.72;80.62
18749;BME280;9503;53.560;10.246;2023-11-25T06:20:10;99667.34;;;6.83;81.46
18749;BME280;9503;53.560;10.246;2023-11-25T06:22:37;99666.81;;;7.27;79.89
18749;BME280;9503;53.560;10.246;2023-11-25T06:25:07;99661.84;;;7.30;79.64
18749;BME280;9503;53.560;10.246;2023-11-25T06:27:34;99668.06;;;6.98;79.82
18749;BME280;9503;53.560;10.246;2023-11-25T06:30:01;99663.56;;;6.92;81.58
18749;BME280;9503;53.560;10.246;2023-11-25T06:32:28;99657.59;;;6.92;81.58
18749;BME280;9503;53.560;10.246;2023-11-25T06:34:54;99651.19;;;6.82;81.80
18749;BME280;9503;53.560;10.246;2023-11-25T06:37:23;99655.81;;;7.28;80.26
18749;BME280;9503;53.560;10.246;2023-11-25T06:39:49;99652.34;;;6.89;81.90
18749;BME280;9503;53.560;10.246;2023-11-25T06:42:17;99657.44;;;6.89;82.05
18749;BME280;9503;53.560;10.246;2023-11-25T06:44:44;99648.91;;;6.69;82.85
18749;BME280;9503;53.560;10.246;2023-11-25T06:47:12;99655.53;;;7.03;82.17
18749;BME280;9503;53.560;10.246;2023-11-25T06:49:43;99648.75;;;6.66;82.54
18749;BME280;9503;53.560;10.246;2023-11-25T06:52:09;99647.13;;;6.49;84.19
18749;BME280;9503;53.560;10.246;2023-11-25T06:54:36;99657.88;;;7.37;81.64
18749;BME280;9503;53.560;10.246;2023-11-25T06:57:02;99667.53;;;7.25;81.92
18749;BME280;9503;53.560;10.246;2023-11-25T06:59:30;99654.50;;;6.80;82.40
18749;BME280;9503;53.560;10.246;2023-11-25T07:01:57;99646.56;;;6.74;83.25
18749;BME280;9503;53.560;10.246;2023-11-25T07:04:24;99661.72;;;6.71;84.55
18749;BME280;9503;53.560;10.246;2023-11-25T07:06:51;99654.19;;;7.11;83.59
18749;BME280;9503;53.560;10.246;2023-11-25T07:09:19;99660.41;;;6.61;84.42
18749;BME280;9503;53.560;10.246;2023-11-25T07:11:47;99652.47;;;6.73;84.59
18749;BME280;9503;53.560;10.246;2023-11-25T07:14:14;99653.53;;;7.15;83.23
18749;BME280;9503;53.560;10.246;2023-11-25T07:16:43;99654.06;;;7.27;81.28
18749;BME280;9503;53.560;10.246;2023-11-25T07:19:10;99653.03;;;7.83;80.63
18749;BME280;9503;53.560;10.246;2023-11-25T07:21:37;99647.78;;;7.59;80.40
18749;BME280;9503;53.560;10.246;2023-11-25T07:24:05;99648.06;;;6.51;82.96
18749;BME280;9503;53.560;10.246;2023-11-25T07:26:33;99637.69;;;6.83;84.06
18749;BME280;9503;53.560;10.246;2023-11-25T07:29:05;99636.53;;;6.96;84.26
18749;BME280;9503;53.560;10.246;2023-11-25T07:31:34;99637.94;;;6.52;85.07
18749;BME280;9503;53.560;10.246;2023-11-25T07:34:03;99648.59;;;6.81;85.41
18749;BME280;9503;53.560;10.246;2023-11-25T07:36:30;99651.00;;;7.55;83.20
18749;BME280;9503;53.560;10.246;2023-11-25T07:38:57;99645.25;;;7.59;82.15
18749;BME280;9503;53.560;10.246;2023-11-25T07:41:24;99631.97;;;7.47;81.81
18749;BME280;9503;53.560;10.246;2023-11-25T07:43:50;99634.97;;;7.58;82.76
18749;BME280;9503;53.560;10.246;2023-11-25T07:46:17;99645.84;;;7.54;82.71
18749;BME280;9503;53.560;10.246;2023-11-25T07:48:44;99651.38;;;8.04;80.77
18749;BME280;9503;53.560;10.246;2023-11-25T07:51:12;99656.78;;;8.33;79.96
18749;BME280;9503;53.560;10.246;2023-11-25T07:53:39;99664.06;;;8.03;79.76
18749;BME280;9503;53.560;10.246;2023-11-25T07:56:06;99669.69;;;8.15;80.34
18749;BME280;9503;53.560;10.246;2023-11-25T07:58:33;99660.75;;;8.26;79.73
18749;BME280;9503;53.560;10.246;2023-11-25T08:01:00;99662.50;;;8.07;80.85
18749;BME280;9503;53.560;10.246;2023-11-25T08:03:27;99666.00;;;8.09;79.89
18749;BME280;9503;53.560;10.246;2023-11-25T08:05:53;99672.84;;;8.51;78.98
18749;BME280;9503;53.560;10.246;2023-11-25T08:08:21;99678.50;;;8.44;79.70
18749;BME280;9503;53.560;10.246;2023-11-25T08:10:49;99679.22;;;8.40;79.35
18749;BME280;9503;53.560;10.246;2023-11-25T08:13:17;99678.16;;;8.78;79.15
18749;BME280;9503;53.560;10.246;2023-11-25T08:15:45;99682.91;;;8.69;78.49
18749;BME280;9503;53.560;10.246;2023-11-25T08:18:12;99687.44;;;8.76;78.26
18749;BME280;9503;53.560;10.246;2023-11-25T08:20:40;99698.53;;;8.77;78.36
18749;BME280;9503;53.560;10.246;2023-11-25T08:23:09;99698.06;;;8.65;79.06
18749;BME280;9503;53.560;10.246;2023-11-25T08:25:37;99693.19;;;8.71;78.35
18749;BME280;9503;53.560;10.246;2023-11-25T08:28:04;99690.59;;;8.48;79.73
18749;BME280;9503;53.560;10.246;2023-11-25T08:30:30;99689.22;;;8.15;81.17
18749;BME280;9503;53.560;10.246;2023-11-25T08:32:57;99696.56;;;7.86;82.97
18749;BME280;9503;53.560;10.246;2023-11-25T08:35:25;99701.25;;;8.17;82.66
18749;BME280;9503;53.560;10.246;2023-11-25T08:37:51;99695.00;;;7.90;82.73
18749;BME280;9503;53.560;10.246;2023-11-25T08:40:18;99698.94;;;8.23;81.78
18749;BME280;9503;53.560;10.246;2023-11-25T08:42:48;99697.88;;;8.38;81.43
18749;BME280;9503;53.560;10.246;2023-11-25T08:45:15;99698.69;;;8.17;81.26
18749;BME280;9503;53.560;10.246;2023-11-25T08:47:42;99704.63;;;8.80;80.99
18749;BME280;9503;53.560;10.246;2023-11-25T08:50:10;99704.41;;;8.97;80.25
18749;BME280;9503;53.560;10.246;2023-11-25T08:52:40;99707.28;;;9.28;78.33
18749;BME280;9503;53.560;10.246;2023-11-25T08:55:08;99710.47;;;8.99;79.07
18749;BME280;9503;53.560;10.246;2023-11-25T08:57:35;99714.84;;;9.25;78.97
18749;BME280;9503;53.560;10.246;2023-11-25T09:00:05;99708.34;;;8.89;77.96
18749;BME280;9503;53.560;10.246;2023-11-25T09:02:39;99712.19;;;8.77;80.07
18749;BME280;9503;53.560;10.246;2023-11-25T09:05:06;99710.31;;;8.96;80.29
18749;BME280;9503;53.560;10.246;2023-11-25T09:07:33;99714.75;;;9.00;80.33
18749;BME280;9503;53.560;10.246;2023-11-25T09:09:59;99712.91;;;9.18;80.59
18749;BME280;9503;53.560;10.246;2023-11-25T09:12:30;99719.53;;;8.47;81.09
18749;BME280;9503;53.560;10.246;2023-11-25T09:14:57;99732.28;;;9.35;80.23
18749;BME280;9503;53.560;10.246;2023-11-25T09:17:25;99728.81;;;9.33;79.38
18749;BME280;9503;53.560;10.246;2023-11-25T09:19:52;99733.88;;;9.56;79.63
18749;BME280;9503;53.560;10.246;2023-11-25T09:22:19;99735.97;;;9.91;78.31
18749;BME280;9503;53.560;10.246;2023-11-25T09:24:46;99731.44;;;10.08;77.45
18749;BME280;9503;53.560;10.246;2023-11-25T09:27:12;99737.63;;;9.65;78.73
18749;BME280;9503;53.560;10.246;2023-11-25T09:29:40;99734.56;;;10.00;77.16
18749;BME280;9503;53.560;10.246;2023-11-25T09:32:08;99735.69;;;9.84;77.65
18749;BME280;9503;53.560;10.246;2023-11-25T09:34:36;99748.50;;;10.08;77.03
18749;BME280;9503;53.560;10.246;2023-11-25T09:37:04;99751.78;;;9.80;77.38
18749;BME280;9503;53.560;10.246;2023-11-25T09:39:32;99745.84;;;9.57;78.20
18749;BME280;9503;53.560;10.246;2023-11-25T09:41:58;99762.97;;;9.35;78.79
18749;BME280;9503;53.560;10.246;2023-11-25T09:44:26;99755.31;;;9.83;76.86
18749;BME280;9503;53.560;10.246;2023-11-25T09:46:52;99764.03;;;9.88;76.68
18749;BME280;9503;53.560;10.246;2023-11-25T09:49:19;99771.50;;;10.06;76.58
18749;BME280;9503;53.560;10.246;2023-11-25T09:51:48;99764.75;;;9.84;76.53
18749;BME280;9503;53.560;10.246;2023-11-25T09:54:19;99760.28;;;10.03;76.47
18749;BME280;9503;53.560;10.246;2023-11-25T09:56:48;99759.53;;;9.57;76.41
18749;BME280;9503;53.560;10.246;2023-11-25T09:59:16;99745.47;;;9.94;75.16
18749;BME280;9503;53.560;10.246;2023-11-25T10:01:44;99742.69;;;9.88;74.75
18749;BME280;9503;53.560;10.246;2023-11-25T10:04:12;99750.38;;;9.64;75.20
18749;BME280;9503;53.560;10.246;2023-11-25T10:06:39;99758.19;;;9.68;75.38
18749;BME280;9503;53.560;10.246;2023-11-25T10:09:07;99748.09;;;9.72;75.88
18749;BME280;9503;53.560;10.246;2023-11-25T10:11:37;99744.44;;;9.89;75.58
18749;BME280;9503;53.560;10.246;2023-11-25T10:14:09;99752.88;;;9.86;76.19
18749;BME280;9503;53.560;10.246;2023-11-25T10:16:38;99757.13;;;9.86;76.32
18749;BME280;9503;53.560;10.246;2023-11-25T10:19:16;99762.53;;;9.47;77.12
18749;BME280;9503;53.560;10.246;2023-11-25T10:21:44;99775.53;;;9.76;76.96
18749;BME280;9503;53.560;10.246;2023-11-25T10:24:13;99763.59;;;10.00;76.12
18749;BME280;9503;53.560;10.246;2023-11-25T10:26:41;99769.38;;;9.94;77.37
18749;BME280;9503;53.560;10.246;2023-11-25T10:29:09;99771.56;;;10.08;76.55
18749;BME280;9503;53.560;10.246;2023-11-25T10:31:39;99772.75;;;9.93;76.73
18749;BME280;9503;53.560;10.246;2023-11-25T10:34:07;99778.34;;;9.83;76.69
18749;BME280;9503;53.560;10.246;2023-11-25T10:36:35;99777.94;;;9.95;76.37
18749;BME280;9503;53.560;10.246;2023-11-25T10:39:03;99778.00;;;10.46;75.51
18749;BME280;9503;53.560;10.246;2023-11-25T10:41:33;99786.72;;;10.51;74.97
18749;BME280;9503;53.560;10.246;2023-11-25T10:44:00;99782.59;;;10.56;75.88
18749;BME280;9503;53.560;10.246;2023-11-25T10:46:36;99777.78;;;10.40;74.99
18749;BME280;9503;53.560;10.246;2023-11-25T10:49:04;99782.16;;;10.18;74.85
18749;BME280;9503;53.560;10.246;2023-11-25T10:51:33;99784.28;;;10.56;74.98
18749;BME280;9503;53.560;10.246;2023-11-25T10:54:00;99790.38;;;9.84;75.84
18749;BME280;9503;53.560;10.246;2023-11-25T10:56:28;99797.47;;;10.66;75.45
18749;BME280;9503;53.560;10.246;2023-11-25T10:58:59;99779.53;;;10.66;74.81
18749;BME280;9503;53.560;10.246;2023-11-25T11:01:29;99780.88;;;10.82;72.65
18749;BME280;9503;53.560;10.246;2023-11-25T11:03:59;99782.66;;;11.12;71.71
18749;BME280;9503;53.560;10.246;2023-11-25T11:06:27;99786.91;;;11.11;70.96
18749;BME280;9503;53.560;10.246;2023-11-25T11:08:55;99784.41;;;10.86;71.82
18749;BME280;9503;53.560;10.246;2023-11-25T11:11:26;99788.69;;;10.87;72.83
18749;BME280;9503;53.560;10.246;2023-11-25T11:14:04;99795.84;;;10.95;71.57
18749;BME280;9503;53.560;10.246;2023-11-25T11:16:40;99803.28;;;10.88;72.53
18749;BME280;9503;53.560;10.246;2023-11-25T11:19:09;99801.34;;;10.81;71.42
18749;BME280;9503;53.560;10.246;2023-11-25T11:21:37;99813.16;;;11.02;72.13
18749;BME280;9503;53.560;10.246;2023-11-25T11:24:05;99810.25;;;10.92;71.78
18749;BME280;9503;53.560;10.246;2023-11-25T11:26:39;99813.47;;;10.86;71.92
18749;BME280;9503;53.560;10.246;2023-11-25T11:29:16;99808.59;;;10.67;73.00
18749;BME280;9503;53.560;10.246;2023-11-25T11:31:57;99802.22;;;11.37;71.00
18749;BME280;9503;53.560;10.246;2023-11-25T11:34:27;99799.34;;;11.54;70.72
18749;BME280;9503;53.560;10.246;2023-11-25T11:36:54;99800.19;;;11.55;70.19
18749;BME280;9503;53.560;10.246;2023-11-25T11:39:32;99808.34;;;12.00;68.88
18749;BME280;9503;53.560;10.246;2023-11-25T11:42:27;99808.72;;;11.54;68.82
18749;BME280;9503;53.560;10.246;2023-11-25T11:45:00;99806.13;;;11.82;67.89
18749;BME280;9503;53.560;10.246;2023-11-25T11:47:37;99811.53;;;11.61;68.97
18749;BME280;9503;53.560;10.246;2023-11-25T11:50:06;99816.31;;;11.22;69.29
18749;BME280;9503;53.560;10.246;2023-11-25T11:52:34;99817.41;;;11.59;68.61
18749;BME280;9503;53.560;10.246;2023-11-25T11:55:38;99822.97;;;10.89;69.54
18749;BME280;9503;53.560;10.246;2023-11-25T11:58:06;99822.34;;;10.96;69.72
18749;BME280;9503;53.560;10.246;2023-11-25T12:00:42;99828.88;;;11.42;68.62
18749;BME280;9503;53.560;10.246;2023-11-25T12:03:11;99833.63;;;11.56;68.39
18749;BME280;9503;53.560;10.246;2023-11-25T12:05:38;99836.53;;;11.12;68.03
18749;BME280;9503;53.560;10.246;2023-11-25T12:08:05;99838.31;;;11.43;68.17
18749;BME280;9503;53.560;10.246;2023-11-25T12:10:32;99826.41;;;11.45;68.31
18749;BME280;9503;53.560;10.246;2023-11-25T12:12:59;99832.50;;;11.20;68.33
18749;BME280;9503;53.560;10.246;2023-11-25T12:15:25;99838.78;;;11.29;67.71
18749;BME280;9503;53.560;10.246;2023-11-25T12:17:54;99839.41;;;11.22;68.42
18749;BME280;9503;53.560;10.246;2023-11-25T12:20:21;99835.03;;;11.18;68.23
18749;BME280;9503;53.560;10.246;2023-11-25T12:22:48;99855.16;;;11.33;67.86
18749;BME280;9503;53.560;10.246;2023-11-25T12:25:15;99850.63;;;11.24;67.53
18749;BME280;9503;53.560;10.246;2023-11-25T12:27:47;99842.56;;;11.41;68.75
18749;BME280;9503;53.560;10.246;2023-11-25T12:30:15;99850.50;;;11.78;67.20
18749;BME280;9503;53.560;10.246;2023-11-25T12:32:42;99847.97;;;11.80;67.52
18749;BME280;9503;53.560;10.246;2023-11-25T12:35:10;99857.91;;;11.96;66.53
18749;BME280;9503;53.560;10.246;2023-11-25T12:37:40;99850.03;;;11.90;66.12
18749;BME280;9503;53.560;10.246;2023-11-25T12:40:15;99848.63;;;12.01;66.65
18749;BME280;9503;53.560;10.246;2023-11-25T12:42:44;99851.78;;;11.91;66.68
18749;BME280;9503;53.560;10.246;2023-11-25T12:45:12;99852.50;;;11.87;67.42
18749;BME280;9503;53.560;10.246;2023-11-25T12:47:52;99854.41;;;11.66;66.68
18749;BME280;9503;53.560;10.246;2023-11-25T12:50:21;99853.31;;;11.29;67.09
18749;BME280;9503;53.560;10.246;2023-11-25T12:53:01;99858.09;;;10.91;68.75
18749;BME280;9503;53.560;10.246;2023-11-25T12:55:39;99853.22;;;10.99;69.57
18749;BME280;9503;53.560;10.246;2023-11-25T12:58:07;99858.13;;;10.93;69.46
18749;BME280;9503;53.560;10.246;2023-11-25T13:00:35;99858.91;;;10.90;68.92
18749;BME280;9503;53.560;10.246;2023-11-25T13:03:02;99864.56;;;11.32;68.87
18749;BME280;9503;53.560;10.246;2023-11-25T13:05:31;99868.50;;;11.50;67.79
18749;BME280;9503;53.560;10.246;2023-11-25T13:07:58;99871.94;;;11.50;67.63
18749;BME280;9503;53.560;10.246;2023-11-25T13:10:25;99875.97;;;11.42;68.10
18749;BME280;9503;53.560;10.246;2023-11-25T13:12:52;99873.09;;;11.06;68.83